Weather at Belleville Airport

Public forecast

Using degrees Celsius for public forecast. Weather courtesy of forecast.io.

Closest aviation weather report (METAR) to Belleville Airport

Closest report is CFB Trenton, 10.4 nm (19.3 km) WSW. Retrieved 2021/03/01 17:00 UTC (1 hour ago):

CYTR 011700Z 29020G26KT 15SM FEW034 SCT250 00/M08 A2975 RMK SC2CI2 SLP078

Closest aviation forecast (TAF) to Belleville Airport

Closest forecast is CFB Trenton, 10.4 nm (19.3 km) WSW. Retrieved 2021/03/01 12:33 UTC (6 hours ago):

TAF CYTR 011130Z 0112/0212 28010G20KT 2SM BR BKN020 TEMPO 0112/0114 P6SM NSW SCT010 OVC030 BECMG 0112/0114 28015G30KT FM011400 27015G30KT P6SM OVC030 FM011700 27020G35KT P6SM BKN040 TEMPO 0117/0124 2SM -SHSN BKN020 BECMG 0119/0121 31020G40KT FM020300 31015G30KT P6SM SCT040 BECMG 0207/0209 31010G25KT RMK FCST BASED ON AUTO OBS 020300-021100Z NXT FCST BY 011800Z